sensor_id;sensor_type;location;lat;lon;timestamp;P1;durP1;ratioP1;P2;durP2;ratioP2
13014;SDS011;6573;57.696;11.950;2023-04-10T00:01:31;6.13;;;2.70;;
13014;SDS011;6573;57.696;11.950;2023-04-10T00:04:01;4.33;;;2.50;;
13014;SDS011;6573;57.696;11.950;2023-04-10T00:06:30;3.87;;;2.70;;
13014;SDS011;6573;57.696;11.950;2023-04-10T00:08:59;3.60;;;2.43;;
13014;SDS011;6573;57.696;11.950;2023-04-10T00:11:27;4.93;;;2.37;;
13014;SDS011;6573;57.696;11.950;2023-04-10T00:13:56;3.90;;;2.27;;
13014;SDS011;6573;57.696;11.950;2023-04-10T00:16:24;3.10;;;2.30;;
13014;SDS011;6573;57.696;11.950;2023-04-10T00:18:57;3.67;;;2.37;;
13014;SDS011;6573;57.696;11.950;2023-04-10T00:21:25;4.50;;;2.20;;
13014;SDS011;6573;57.696;11.950;2023-04-10T00:23:53;3.90;;;2.20;;
13014;SDS011;6573;57.696;11.950;2023-04-10T00:26:24;3.50;;;2.37;;
13014;SDS011;6573;57.696;11.950;2023-04-10T00:28:52;4.27;;;2.40;;
13014;SDS011;6573;57.696;11.950;2023-04-10T00:31:21;3.07;;;2.20;;
13014;SDS011;6573;57.696;11.950;2023-04-10T00:33:50;3.13;;;2.20;;
13014;SDS011;6573;57.696;11.950;2023-04-10T00:36:20;4.87;;;2.20;;
13014;SDS011;6573;57.696;11.950;2023-04-10T00:38:49;3.07;;;2.40;;
13014;SDS011;6573;57.696;11.950;2023-04-10T00:41:17;3.50;;;2.17;;
13014;SDS011;6573;57.696;11.950;2023-04-10T00:43:45;2.30;;;1.90;;
13014;SDS011;6573;57.696;11.950;2023-04-10T00:46:14;4.57;;;2.20;;
13014;SDS011;6573;57.696;11.950;2023-04-10T00:48:43;3.97;;;2.30;;
13014;SDS011;6573;57.696;11.950;2023-04-10T00:51:11;3.37;;;2.30;;
13014;SDS011;6573;57.696;11.950;2023-04-10T00:53:41;3.60;;;2.20;;
13014;SDS011;6573;57.696;11.950;2023-04-10T00:56:10;2.37;;;2.17;;
13014;SDS011;6573;57.696;11.950;2023-04-10T00:58:39;2.27;;;1.90;;
13014;SDS011;6573;57.696;11.950;2023-04-10T01:01:07;3.60;;;2.20;;
13014;SDS011;6573;57.696;11.950;2023-04-10T01:03:36;3.47;;;2.17;;
13014;SDS011;6573;57.696;11.950;2023-04-10T01:06:07;3.00;;;2.30;;
13014;SDS011;6573;57.696;11.950;2023-04-10T01:08:46;2.73;;;2.17;;
13014;SDS011;6573;57.696;11.950;2023-04-10T01:11:26;3.70;;;2.03;;
13014;SDS011;6573;57.696;11.950;2023-04-10T01:14:06;2.60;;;2.10;;
13014;SDS011;6573;57.696;11.950;2023-04-10T01:16:44;2.43;;;2.23;;
13014;SDS011;6573;57.696;11.950;2023-04-10T01:19:23;3.83;;;2.33;;
13014;SDS011;6573;57.696;11.950;2023-04-10T01:21:57;2.93;;;2.40;;
13014;SDS011;6573;57.696;11.950;2023-04-10T01:24:36;2.93;;;2.30;;
13014;SDS011;6573;57.696;11.950;2023-04-10T01:27:21;3.83;;;2.30;;
13014;SDS011;6573;57.696;11.950;2023-04-10T01:30:04;4.23;;;2.73;;
13014;SDS011;6573;57.696;11.950;2023-04-10T01:32:38;2.93;;;2.30;;
13014;SDS011;6573;57.696;11.950;2023-04-10T01:35:08;2.60;;;2.40;;
13014;SDS011;6573;57.696;11.950;2023-04-10T01:37:40;3.40;;;2.50;;
13014;SDS011;6573;57.696;11.950;2023-04-10T01:40:12;3.73;;;2.20;;
13014;SDS011;6573;57.696;11.950;2023-04-10T01:42:44;3.43;;;2.27;;
13014;SDS011;6573;57.696;11.950;2023-04-10T01:45:19;4.23;;;2.90;;
13014;SDS011;6573;57.696;11.950;2023-04-10T01:47:50;3.67;;;2.80;;
13014;SDS011;6573;57.696;11.950;2023-04-10T01:50:20;2.53;;;2.30;;
13014;SDS011;6573;57.696;11.950;2023-04-10T01:52:49;2.70;;;2.37;;
13014;SDS011;6573;57.696;11.950;2023-04-10T01:55:19;2.83;;;2.50;;
13014;SDS011;6573;57.696;11.950;2023-04-10T01:57:48;2.83;;;2.27;;
13014;SDS011;6573;57.696;11.950;2023-04-10T02:00:19;3.80;;;2.40;;
13014;SDS011;6573;57.696;11.950;2023-04-10T02:02:48;2.70;;;2.20;;
13014;SDS011;6573;57.696;11.950;2023-04-10T02:05:16;2.97;;;2.60;;
13014;SDS011;6573;57.696;11.950;2023-04-10T02:07:47;3.23;;;2.30;;
13014;SDS011;6573;57.696;11.950;2023-04-10T02:10:24;6.10;;;2.70;;
13014;SDS011;6573;57.696;11.950;2023-04-10T02:12:59;2.60;;;2.30;;
13014;SDS011;6573;57.696;11.950;2023-04-10T02:15:32;3.67;;;2.27;;
13014;SDS011;6573;57.696;11.950;2023-04-10T02:18:03;3.13;;;2.43;;
13014;SDS011;6573;57.696;11.950;2023-04-10T02:20:34;2.97;;;2.47;;
13014;SDS011;6573;57.696;11.950;2023-04-10T02:23:04;3.87;;;2.30;;
13014;SDS011;6573;57.696;11.950;2023-04-10T02:25:33;3.37;;;2.60;;
13014;SDS011;6573;57.696;11.950;2023-04-10T02:28:02;2.57;;;2.37;;
13014;SDS011;6573;57.696;11.950;2023-04-10T02:30:33;4.53;;;2.60;;
13014;SDS011;6573;57.696;11.950;2023-04-10T02:33:01;2.50;;;2.30;;
13014;SDS011;6573;57.696;11.950;2023-04-10T02:35:30;3.03;;;2.10;;
13014;SDS011;6573;57.696;11.950;2023-04-10T02:37:58;4.73;;;2.47;;
13014;SDS011;6573;57.696;11.950;2023-04-10T02:40:26;4.93;;;2.60;;
13014;SDS011;6573;57.696;11.950;2023-04-10T02:42:55;4.10;;;2.53;;
13014;SDS011;6573;57.696;11.950;2023-04-10T02:45:23;3.90;;;2.90;;
13014;SDS011;6573;57.696;11.950;2023-04-10T02:47:54;5.07;;;2.50;;
13014;SDS011;6573;57.696;11.950;2023-04-10T02:50:26;3.17;;;2.63;;
13014;SDS011;6573;57.696;11.950;2023-04-10T02:52:55;3.97;;;2.80;;
13014;SDS011;6573;57.696;11.950;2023-04-10T02:55:24;3.93;;;2.80;;
13014;SDS011;6573;57.696;11.950;2023-04-10T02:57:52;3.30;;;2.90;;
13014;SDS011;6573;57.696;11.950;2023-04-10T03:00:21;4.37;;;3.10;;
13014;SDS011;6573;57.696;11.950;2023-04-10T03:02:49;3.70;;;2.83;;
13014;SDS011;6573;57.696;11.950;2023-04-10T03:05:20;4.60;;;3.10;;
13014;SDS011;6573;57.696;11.950;2023-04-10T03:07:49;4.37;;;3.13;;
13014;SDS011;6573;57.696;11.950;2023-04-10T03:10:19;4.67;;;3.00;;
13014;SDS011;6573;57.696;11.950;2023-04-10T03:12:48;4.27;;;3.40;;
13014;SDS011;6573;57.696;11.950;2023-04-10T03:15:16;4.20;;;3.10;;
13014;SDS011;6573;57.696;11.950;2023-04-10T03:17:44;5.93;;;3.17;;
13014;SDS011;6573;57.696;11.950;2023-04-10T03:20:13;3.93;;;3.10;;
13014;SDS011;6573;57.696;11.950;2023-04-10T03:22:43;3.30;;;2.93;;
13014;SDS011;6573;57.696;11.950;2023-04-10T03:25:11;4.10;;;3.10;;
13014;SDS011;6573;57.696;11.950;2023-04-10T03:27:39;4.47;;;2.87;;
13014;SDS011;6573;57.696;11.950;2023-04-10T03:30:08;4.37;;;3.20;;
13014;SDS011;6573;57.696;11.950;2023-04-10T03:32:37;4.07;;;3.07;;
13014;SDS011;6573;57.696;11.950;2023-04-10T03:35:07;9.47;;;3.07;;
13014;SDS011;6573;57.696;11.950;2023-04-10T03:37:36;3.77;;;2.80;;
13014;SDS011;6573;57.696;11.950;2023-04-10T03:40:07;4.07;;;3.00;;
13014;SDS011;6573;57.696;11.950;2023-04-10T03:42:36;4.87;;;2.90;;
13014;SDS011;6573;57.696;11.950;2023-04-10T03:45:05;4.17;;;3.00;;
13014;SDS011;6573;57.696;11.950;2023-04-10T03:47:34;4.83;;;2.80;;
13014;SDS011;6573;57.696;11.950;2023-04-10T03:50:02;4.47;;;3.00;;
13014;SDS011;6573;57.696;11.950;2023-04-10T03:52:31;5.67;;;3.00;;
13014;SDS011;6573;57.696;11.950;2023-04-10T03:54:59;3.10;;;2.80;;
13014;SDS011;6573;57.696;11.950;2023-04-10T03:57:29;3.13;;;2.73;;
13014;SDS011;6573;57.696;11.950;2023-04-10T03:59:57;5.90;;;2.87;;
13014;SDS011;6573;57.696;11.950;2023-04-10T04:02:25;4.13;;;2.63;;
13014;SDS011;6573;57.696;11.950;2023-04-10T04:04:54;3.10;;;2.80;;
13014;SDS011;6573;57.696;11.950;2023-04-10T04:07:25;3.23;;;2.63;;
13014;SDS011;6573;57.696;11.950;2023-04-10T04:09:54;4.07;;;2.90;;
13014;SDS011;6573;57.696;11.950;2023-04-10T04:12:22;3.00;;;2.70;;
13014;SDS011;6573;57.696;11.950;2023-04-10T04:14:54;2.67;;;2.40;;
13014;SDS011;6573;57.696;11.950;2023-04-10T04:17:23;2.97;;;2.60;;
13014;SDS011;6573;57.696;11.950;2023-04-10T04:19:54;7.40;;;2.80;;
13014;SDS011;6573;57.696;11.950;2023-04-10T04:22:22;4.43;;;2.90;;
13014;SDS011;6573;57.696;11.950;2023-04-10T04:24:51;4.23;;;2.73;;
13014;SDS011;6573;57.696;11.950;2023-04-10T04:27:19;4.07;;;2.97;;
13014;SDS011;6573;57.696;11.950;2023-04-10T04:29:48;3.10;;;2.80;;
13014;SDS011;6573;57.696;11.950;2023-04-10T04:32:18;5.03;;;3.40;;
13014;SDS011;6573;57.696;11.950;2023-04-10T04:34:46;4.10;;;2.80;;
13014;SDS011;6573;57.696;11.950;2023-04-10T04:37:15;3.80;;;2.93;;
13014;SDS011;6573;57.696;11.950;2023-04-10T04:39:44;6.40;;;3.07;;
13014;SDS011;6573;57.696;11.950;2023-04-10T04:42:14;5.80;;;2.70;;
13014;SDS011;6573;57.696;11.950;2023-04-10T04:44:43;3.07;;;2.70;;
13014;SDS011;6573;57.696;11.950;2023-04-10T04:47:11;4.83;;;2.87;;
13014;SDS011;6573;57.696;11.950;2023-04-10T04:49:41;3.83;;;2.70;;
13014;SDS011;6573;57.696;11.950;2023-04-10T04:52:09;3.50;;;2.73;;
13014;SDS011;6573;57.696;11.950;2023-04-10T04:54:38;3.53;;;2.67;;
13014;SDS011;6573;57.696;11.950;2023-04-10T04:57:06;4.43;;;2.83;;
13014;SDS011;6573;57.696;11.950;2023-04-10T04:59:35;7.13;;;2.57;;
13014;SDS011;6573;57.696;11.950;2023-04-10T05:02:03;4.07;;;2.40;;
13014;SDS011;6573;57.696;11.950;2023-04-10T05:04:32;5.20;;;2.33;;
13014;SDS011;6573;57.696;11.950;2023-04-10T05:07:01;3.63;;;2.40;;
13014;SDS011;6573;57.696;11.950;2023-04-10T05:09:30;4.03;;;2.30;;
13014;SDS011;6573;57.696;11.950;2023-04-10T05:11:58;3.40;;;2.23;;
13014;SDS011;6573;57.696;11.950;2023-04-10T05:14:27;3.37;;;2.10;;
13014;SDS011;6573;57.696;11.950;2023-04-10T05:16:58;13.10;;;2.70;;
13014;SDS011;6573;57.696;11.950;2023-04-10T05:19:29;8.33;;;2.87;;
13014;SDS011;6573;57.696;11.950;2023-04-10T05:21:57;7.10;;;2.80;;
13014;SDS011;6573;57.696;11.950;2023-04-10T05:24:27;2.73;;;2.37;;
13014;SDS011;6573;57.696;11.950;2023-04-10T05:26:55;4.13;;;2.50;;
13014;SDS011;6573;57.696;11.950;2023-04-10T05:29:24;5.13;;;2.33;;
13014;SDS011;6573;57.696;11.950;2023-04-10T05:31:52;4.10;;;2.40;;
13014;SDS011;6573;57.696;11.950;2023-04-10T05:34:20;3.67;;;2.40;;
13014;SDS011;6573;57.696;11.950;2023-04-10T05:36:49;3.07;;;2.30;;
13014;SDS011;6573;57.696;11.950;2023-04-10T05:39:17;6.37;;;2.60;;
13014;SDS011;6573;57.696;11.950;2023-04-10T05:41:47;5.43;;;2.50;;
13014;SDS011;6573;57.696;11.950;2023-04-10T05:44:15;16.37;;;3.37;;
13014;SDS011;6573;57.696;11.950;2023-04-10T05:46:43;5.40;;;2.37;;
13014;SDS011;6573;57.696;11.950;2023-04-10T05:49:12;5.00;;;2.20;;
13014;SDS011;6573;57.696;11.950;2023-04-10T05:51:40;3.07;;;2.37;;
13014;SDS011;6573;57.696;11.950;2023-04-10T05:54:09;2.70;;;2.07;;
13014;SDS011;6573;57.696;11.950;2023-04-10T05:56:37;3.37;;;2.23;;
13014;SDS011;6573;57.696;11.950;2023-04-10T05:59:07;4.10;;;2.30;;
13014;SDS011;6573;57.696;11.950;2023-04-10T06:01:35;3.80;;;2.50;;
13014;SDS011;6573;57.696;11.950;2023-04-10T06:04:03;2.77;;;2.33;;
13014;SDS011;6573;57.696;11.950;2023-04-10T06:06:32;2.03;;;1.87;;
13014;SDS011;6573;57.696;11.950;2023-04-10T06:09:01;3.83;;;2.40;;
13014;SDS011;6573;57.696;11.950;2023-04-10T06:11:29;2.93;;;2.30;;
13014;SDS011;6573;57.696;11.950;2023-04-10T06:13:57;2.53;;;2.20;;
13014;SDS011;6573;57.696;11.950;2023-04-10T06:16:27;2.80;;;2.23;;
13014;SDS011;6573;57.696;11.950;2023-04-10T06:18:56;3.33;;;1.97;;
13014;SDS011;6573;57.696;11.950;2023-04-10T06:21:25;3.03;;;2.10;;
13014;SDS011;6573;57.696;11.950;2023-04-10T06:23:53;3.37;;;2.10;;
13014;SDS011;6573;57.696;11.950;2023-04-10T06:26:22;3.27;;;1.93;;
13014;SDS011;6573;57.696;11.950;2023-04-10T06:28:52;2.60;;;2.17;;
13014;SDS011;6573;57.696;11.950;2023-04-10T06:31:21;2.87;;;2.00;;
13014;SDS011;6573;57.696;11.950;2023-04-10T06:33:51;2.90;;;2.20;;
13014;SDS011;6573;57.696;11.950;2023-04-10T06:36:19;2.57;;;2.00;;
13014;SDS011;6573;57.696;11.950;2023-04-10T06:38:47;8.07;;;2.27;;
13014;SDS011;6573;57.696;11.950;2023-04-10T06:41:15;9.30;;;2.30;;
13014;SDS011;6573;57.696;11.950;2023-04-10T06:43:44;3.43;;;2.10;;
13014;SDS011;6573;57.696;11.950;2023-04-10T06:46:12;5.03;;;2.13;;
13014;SDS011;6573;57.696;11.950;2023-04-10T06:48:41;3.10;;;1.80;;
13014;SDS011;6573;57.696;11.950;2023-04-10T06:51:11;2.57;;;1.80;;
13014;SDS011;6573;57.696;11.950;2023-04-10T06:53:40;8.30;;;2.20;;
13014;SDS011;6573;57.696;11.950;2023-04-10T06:56:08;3.70;;;1.70;;
13014;SDS011;6573;57.696;11.950;2023-04-10T06:58:36;3.23;;;1.70;;
13014;SDS011;6573;57.696;11.950;2023-04-10T07:01:05;3.83;;;1.90;;
13014;SDS011;6573;57.696;11.950;2023-04-10T07:03:33;1.90;;;1.70;;
13014;SDS011;6573;57.696;11.950;2023-04-10T07:06:02;2.87;;;1.53;;
13014;SDS011;6573;57.696;11.950;2023-04-10T07:08:32;1.80;;;1.60;;
13014;SDS011;6573;57.696;11.950;2023-04-10T07:11:01;2.97;;;2.07;;
13014;SDS011;6573;57.696;11.950;2023-04-10T07:13:29;5.20;;;1.70;;
13014;SDS011;6573;57.696;11.950;2023-04-10T07:15:57;3.43;;;1.77;;
13014;SDS011;6573;57.696;11.950;2023-04-10T07:18:26;2.70;;;1.60;;
13014;SDS011;6573;57.696;11.950;2023-04-10T07:20:54;2.43;;;1.70;;
13014;SDS011;6573;57.696;11.950;2023-04-10T07:23:23;2.50;;;1.80;;
13014;SDS011;6573;57.696;11.950;2023-04-10T07:25:54;3.10;;;1.60;;
13014;SDS011;6573;57.696;11.950;2023-04-10T07:28:23;2.37;;;1.70;;
13014;SDS011;6573;57.696;11.950;2023-04-10T07:30:52;1.80;;;1.50;;
13014;SDS011;6573;57.696;11.950;2023-04-10T07:33:20;5.53;;;1.53;;
13014;SDS011;6573;57.696;11.950;2023-04-10T07:35:49;6.60;;;1.77;;
13014;SDS011;6573;57.696;11.950;2023-04-10T07:38:17;3.63;;;1.73;;
13014;SDS011;6573;57.696;11.950;2023-04-10T07:40:46;2.27;;;1.60;;
13014;SDS011;6573;57.696;11.950;2023-04-10T07:43:16;1.80;;;1.50;;
13014;SDS011;6573;57.696;11.950;2023-04-10T07:45:45;6.83;;;2.03;;
13014;SDS011;6573;57.696;11.950;2023-04-10T07:48:13;3.13;;;1.90;;
13014;SDS011;6573;57.696;11.950;2023-04-10T07:50:41;2.07;;;1.57;;
13014;SDS011;6573;57.696;11.950;2023-04-10T07:53:09;4.33;;;1.67;;
13014;SDS011;6573;57.696;11.950;2023-04-10T07:55:38;3.43;;;1.70;;
13014;SDS011;6573;57.696;11.950;2023-04-10T07:58:06;3.67;;;1.80;;
13014;SDS011;6573;57.696;11.950;2023-04-10T08:00:36;2.17;;;1.60;;
13014;SDS011;6573;57.696;11.950;2023-04-10T08:03:05;2.50;;;1.70;;
13014;SDS011;6573;57.696;11.950;2023-04-10T08:05:34;2.33;;;1.60;;
13014;SDS011;6573;57.696;11.950;2023-04-10T08:08:02;3.37;;;1.50;;
13014;SDS011;6573;57.696;11.950;2023-04-10T08:10:30;3.90;;;1.60;;
13014;SDS011;6573;57.696;11.950;2023-04-10T08:12:59;72.37;;;6.97;;
13014;SDS011;6573;57.696;11.950;2023-04-10T08:15:27;3.57;;;1.53;;
13014;SDS011;6573;57.696;11.950;2023-04-10T08:17:57;3.73;;;1.73;;
13014;SDS011;6573;57.696;11.950;2023-04-10T08:20:26;8.43;;;2.00;;
13014;SDS011;6573;57.696;11.950;2023-04-10T08:22:54;3.60;;;1.43;;
13014;SDS011;6573;57.696;11.950;2023-04-10T08:25:44;2.63;;;1.57;;
13014;SDS011;6573;57.696;11.950;2023-04-10T08:28:13;2.83;;;1.70;;
13014;SDS011;6573;57.696;11.950;2023-04-10T08:30:41;4.00;;;1.80;;
13014;SDS011;6573;57.696;11.950;2023-04-10T08:33:11;3.20;;;1.60;;
13014;SDS011;6573;57.696;11.950;2023-04-10T08:35:39;3.20;;;1.57;;
13014;SDS011;6573;57.696;11.950;2023-04-10T08:38:08;5.03;;;1.50;;
13014;SDS011;6573;57.696;11.950;2023-04-10T08:40:40;2.53;;;1.40;;
13014;SDS011;6573;57.696;11.950;2023-04-10T08:43:10;3.80;;;1.70;;
13014;SDS011;6573;57.696;11.950;2023-04-10T08:45:39;4.87;;;1.60;;
13014;SDS011;6573;57.696;11.950;2023-04-10T08:48:09;3.33;;;1.50;;
13014;SDS011;6573;57.696;11.950;2023-04-10T08:50:41;3.97;;;1.47;;
13014;SDS011;6573;57.696;11.950;2023-04-10T08:53:12;3.13;;;1.53;;
13014;SDS011;6573;57.696;11.950;2023-04-10T08:55:42;2.87;;;1.40;;
13014;SDS011;6573;57.696;11.950;2023-04-10T08:58:12;2.87;;;1.43;;
13014;SDS011;6573;57.696;11.950;2023-04-10T09:00:42;3.23;;;1.50;;
13014;SDS011;6573;57.696;11.950;2023-04-10T09:03:13;2.63;;;1.40;;
13014;SDS011;6573;57.696;11.950;2023-04-10T09:05:42;1.70;;;1.30;;
13014;SDS011;6573;57.696;11.950;2023-04-10T09:08:13;2.27;;;1.40;;
13014;SDS011;6573;57.696;11.950;2023-04-10T09:10:42;4.70;;;1.57;;
13014;SDS011;6573;57.696;11.950;2023-04-10T09:13:10;3.03;;;1.40;;
13014;SDS011;6573;57.696;11.950;2023-04-10T09:15:54;1.87;;;1.30;;
13014;SDS011;6573;57.696;11.950;2023-04-10T09:18:35;2.07;;;1.30;;
13014;SDS011;6573;57.696;11.950;2023-04-10T09:21:13;4.43;;;1.33;;
13014;SDS011;6573;57.696;11.950;2023-04-10T09:23:43;2.20;;;1.30;;
13014;SDS011;6573;57.696;11.950;2023-04-10T09:26:25;2.03;;;1.40;;
13014;SDS011;6573;57.696;11.950;2023-04-10T09:28:55;3.53;;;1.30;;
13014;SDS011;6573;57.696;11.950;2023-04-10T09:31:29;3.10;;;1.50;;
13014;SDS011;6573;57.696;11.950;2023-04-10T09:34:07;2.00;;;1.20;;
13014;SDS011;6573;57.696;11.950;2023-04-10T09:36:40;1.80;;;1.50;;
13014;SDS011;6573;57.696;11.950;2023-04-10T09:39:10;2.00;;;1.37;;
13014;SDS011;6573;57.696;11.950;2023-04-10T09:41:48;1.97;;;1.37;;
13014;SDS011;6573;57.696;11.950;2023-04-10T09:44:18;2.57;;;1.47;;
13014;SDS011;6573;57.696;11.950;2023-04-10T09:46:56;2.63;;;1.33;;
13014;SDS011;6573;57.696;11.950;2023-04-10T09:49:26;4.20;;;1.40;;
13014;SDS011;6573;57.696;11.950;2023-04-10T09:51:54;3.40;;;1.30;;
13014;SDS011;6573;57.696;11.950;2023-04-10T09:54:33;2.43;;;1.20;;
13014;SDS011;6573;57.696;11.950;2023-04-10T09:57:03;1.90;;;1.10;;
13014;SDS011;6573;57.696;11.950;2023-04-10T09:59:34;3.97;;;1.40;;
13014;SDS011;6573;57.696;11.950;2023-04-10T10:02:08;2.50;;;1.30;;
13014;SDS011;6573;57.696;11.950;2023-04-10T10:04:39;7.17;;;1.10;;
13014;SDS011;6573;57.696;11.950;2023-04-10T10:07:11;3.80;;;1.20;;
13014;SDS011;6573;57.696;11.950;2023-04-10T10:09:40;2.80;;;1.10;;
13014;SDS011;6573;57.696;11.950;2023-04-10T10:12:09;6.80;;;2.03;;
13014;SDS011;6573;57.696;11.950;2023-04-10T10:14:41;1.73;;;1.30;;
13014;SDS011;6573;57.696;11.950;2023-04-10T10:17:17;1.80;;;1.20;;
13014;SDS011;6573;57.696;11.950;2023-04-10T10:19:52;1.20;;;1.00;;
13014;SDS011;6573;57.696;11.950;2023-04-10T10:22:26;1.70;;;1.03;;
13014;SDS011;6573;57.696;11.950;2023-04-10T10:24:56;2.67;;;1.20;;
13014;SDS011;6573;57.696;11.950;2023-04-10T10:27:26;2.10;;;1.30;;
13014;SDS011;6573;57.696;11.950;2023-04-10T10:29:58;1.20;;;0.90;;
13014;SDS011;6573;57.696;11.950;2023-04-10T10:32:37;1.47;;;1.37;;
13014;SDS011;6573;57.696;11.950;2023-04-10T10:35:09;1.80;;;1.20;;
13014;SDS011;6573;57.696;11.950;2023-04-10T10:37:37;1.47;;;1.10;;
13014;SDS011;6573;57.696;11.950;2023-04-10T10:40:09;4.97;;;1.50;;
13014;SDS011;6573;57.696;11.950;2023-04-10T10:42:44;2.90;;;1.33;;
13014;SDS011;6573;57.696;11.950;2023-04-10T10:45:16;1.43;;;1.20;;
13014;SDS011;6573;57.696;11.950;2023-04-10T10:47:49;2.43;;;1.50;;
13014;SDS011;6573;57.696;11.950;2023-04-10T10:50:21;2.43;;;1.43;;
13014;SDS011;6573;57.696;11.950;2023-04-10T10:52:50;2.70;;;1.50;;
13014;SDS011;6573;57.696;11.950;2023-04-10T10:55:31;2.00;;;1.40;;
13014;SDS011;6573;57.696;11.950;2023-04-10T10:58:03;4.10;;;1.87;;
13014;SDS011;6573;57.696;11.950;2023-04-10T11:03:36;21.03;;;3.20;;
13014;SDS011;6573;57.696;11.950;2023-04-10T11:06:07;3.07;;;2.70;;
13014;SDS011;6573;57.696;11.950;2023-04-10T11:08:41;4.50;;;3.37;;
13014;SDS011;6573;57.696;11.950;2023-04-10T11:11:15;3.37;;;2.30;;
13014;SDS011;6573;57.696;11.950;2023-04-10T11:16:49;11.50;;;2.23;;
13014;SDS011;6573;57.696;11.950;2023-04-10T11:19:17;4.17;;;2.13;;
13014;SDS011;6573;57.696;11.950;2023-04-10T11:22:06;1.93;;;1.57;;
13014;SDS011;6573;57.696;11.950;2023-04-10T11:24:51;5.03;;;1.57;;
13014;SDS011;6573;57.696;11.950;2023-04-10T11:27:43;6.10;;;1.77;;
13014;SDS011;6573;57.696;11.950;2023-04-10T11:30:27;7.97;;;1.73;;
13014;SDS011;6573;57.696;11.950;2023-04-10T11:32:57;2.30;;;1.70;;
13014;SDS011;6573;57.696;11.950;2023-04-10T11:35:27;3.17;;;1.60;;
13014;SDS011;6573;57.696;11.950;2023-04-10T11:38:14;2.63;;;1.70;;
13014;SDS011;6573;57.696;11.950;2023-04-10T11:41:00;2.60;;;1.60;;
13014;SDS011;6573;57.696;11.950;2023-04-10T11:43:31;2.57;;;1.80;;
13014;SDS011;6573;57.696;11.950;2023-04-10T11:46:02;6.73;;;1.40;;
13014;SDS011;6573;57.696;11.950;2023-04-10T11:48:33;5.37;;;1.60;;
13014;SDS011;6573;57.696;11.950;2023-04-10T11:51:05;1.77;;;1.50;;
13014;SDS011;6573;57.696;11.950;2023-04-10T11:53:36;3.90;;;1.50;;
13014;SDS011;6573;57.696;11.950;2023-04-10T11:56:04;5.07;;;1.37;;
13014;SDS011;6573;57.696;11.950;2023-04-10T11:58:41;1.93;;;1.10;;
13014;SDS011;6573;57.696;11.950;2023-04-10T12:01:10;2.10;;;1.50;;
13014;SDS011;6573;57.696;11.950;2023-04-10T12:03:40;2.83;;;1.40;;
13014;SDS011;6573;57.696;11.950;2023-04-10T12:06:11;1.47;;;1.07;;
13014;SDS011;6573;57.696;11.950;2023-04-10T12:08:43;2.83;;;1.53;;
13014;SDS011;6573;57.696;11.950;2023-04-10T12:11:16;1.63;;;1.53;;
13014;SDS011;6573;57.696;11.950;2023-04-10T12:13:46;3.60;;;1.83;;
13014;SDS011;6573;57.696;11.950;2023-04-10T12:16:14;6.93;;;1.57;;
13014;SDS011;6573;57.696;11.950;2023-04-10T12:18:43;2.17;;;1.23;;
13014;SDS011;6573;57.696;11.950;2023-04-10T12:21:11;3.70;;;1.20;;
13014;SDS011;6573;57.696;11.950;2023-04-10T12:23:41;1.93;;;1.27;;
13014;SDS011;6573;57.696;11.950;2023-04-10T12:26:11;2.73;;;1.30;;
13014;SDS011;6573;57.696;11.950;2023-04-10T12:28:41;2.37;;;1.00;;
13014;SDS011;6573;57.696;11.950;2023-04-10T12:31:26;1.20;;;1.00;;
13014;SDS011;6573;57.696;11.950;2023-04-10T12:33:55;2.57;;;1.17;;
13014;SDS011;6573;57.696;11.950;2023-04-10T12:36:24;3.70;;;1.90;;
13014;SDS011;6573;57.696;11.950;2023-04-10T12:38:57;2.70;;;1.30;;
13014;SDS011;6573;57.696;11.950;2023-04-10T12:41:27;3.67;;;1.30;;
13014;SDS011;6573;57.696;11.950;2023-04-10T12:44:07;5.83;;;1.73;;
13014;SDS011;6573;57.696;11.950;2023-04-10T12:46:36;3.50;;;1.13;;
13014;SDS011;6573;57.696;11.950;2023-04-10T12:49:09;3.10;;;0.93;;
13014;SDS011;6573;57.696;11.950;2023-04-10T12:51:45;2.43;;;1.13;;
13014;SDS011;6573;57.696;11.950;2023-04-10T12:54:29;8.03;;;1.60;;
13014;SDS011;6573;57.696;11.950;2023-04-10T12:56:58;2.20;;;1.10;;
13014;SDS011;6573;57.696;11.950;2023-04-10T12:59:27;3.10;;;1.20;;
13014;SDS011;6573;57.696;11.950;2023-04-10T13:01:57;1.90;;;1.30;;
13014;SDS011;6573;57.696;11.950;2023-04-10T13:04:25;2.97;;;1.10;;
13014;SDS011;6573;57.696;11.950;2023-04-10T13:06:58;3.27;;;1.63;;
13014;SDS011;6573;57.696;11.950;2023-04-10T13:09:26;4.80;;;1.20;;
13014;SDS011;6573;57.696;11.950;2023-04-10T13:11:56;2.27;;;1.30;;
13014;SDS011;6573;57.696;11.950;2023-04-10T13:14:24;4.53;;;2.00;;
13014;SDS011;6573;57.696;11.950;2023-04-10T13:16:53;8.07;;;1.80;;
13014;SDS011;6573;57.696;11.950;2023-04-10T13:19:21;2.70;;;1.53;;
13014;SDS011;6573;57.696;11.950;2023-04-10T13:21:49;3.57;;;1.60;;
13014;SDS011;6573;57.696;11.950;2023-04-10T13:24:18;2.03;;;1.10;;
13014;SDS011;6573;57.696;11.950;2023-04-10T13:26:48;4.07;;;1.50;;
13014;SDS011;6573;57.696;11.950;2023-04-10T13:29:18;4.87;;;1.80;;
13014;SDS011;6573;57.696;11.950;2023-04-10T13:31:47;5.07;;;1.50;;
13014;SDS011;6573;57.696;11.950;2023-04-10T13:34:15;4.30;;;1.70;;
13014;SDS011;6573;57.696;11.950;2023-04-10T13:36:44;4.10;;;1.53;;
13014;SDS011;6573;57.696;11.950;2023-04-10T13:39:12;2.00;;;1.30;;
13014;SDS011;6573;57.696;11.950;2023-04-10T13:41:40;3.33;;;1.67;;
13014;SDS011;6573;57.696;11.950;2023-04-10T13:44:08;6.87;;;1.50;;
13014;SDS011;6573;57.696;11.950;2023-04-10T13:46:38;0.80;;;0.70;;
13014;SDS011;6573;57.696;11.950;2023-04-10T13:49:07;4.90;;;1.43;;
13014;SDS011;6573;57.696;11.950;2023-04-10T13:51:35;2.27;;;1.60;;
13014;SDS011;6573;57.696;11.950;2023-04-10T13:54:03;2.93;;;1.30;;
13014;SDS011;6573;57.696;11.950;2023-04-10T13:56:31;4.33;;;1.70;;
13014;SDS011;6573;57.696;11.950;2023-04-10T13:59:00;2.53;;;1.30;;
13014;SDS011;6573;57.696;11.950;2023-04-10T14:01:28;3.23;;;1.40;;
13014;SDS011;6573;57.696;11.950;2023-04-10T14:03:58;3.37;;;1.40;;
13014;SDS011;6573;57.696;11.950;2023-04-10T14:06:26;2.37;;;1.50;;
13014;SDS011;6573;57.696;11.950;2023-04-10T14:08:55;2.27;;;1.57;;
13014;SDS011;6573;57.696;11.950;2023-04-10T14:11:24;1.47;;;1.27;;
13014;SDS011;6573;57.696;11.950;2023-04-10T14:13:52;3.27;;;1.50;;
13014;SDS011;6573;57.696;11.950;2023-04-10T14:16:21;6.37;;;1.90;;
13014;SDS011;6573;57.696;11.950;2023-04-10T14:18:49;4.30;;;1.57;;
13014;SDS011;6573;57.696;11.950;2023-04-10T14:21:20;3.10;;;1.40;;
13014;SDS011;6573;57.696;11.950;2023-04-10T14:23:48;4.60;;;2.00;;
13014;SDS011;6573;57.696;11.950;2023-04-10T14:26:16;2.73;;;1.97;;
13014;SDS011;6573;57.696;11.950;2023-04-10T14:28:45;3.90;;;1.60;;
13014;SDS011;6573;57.696;11.950;2023-04-10T14:31:13;2.20;;;1.30;;
13014;SDS011;6573;57.696;11.950;2023-04-10T14:33:41;2.67;;;1.83;;
13014;SDS011;6573;57.696;11.950;2023-04-10T14:36:09;3.60;;;1.70;;
13014;SDS011;6573;57.696;11.950;2023-04-10T14:38:39;5.07;;;2.00;;
13014;SDS011;6573;57.696;11.950;2023-04-10T14:41:08;2.53;;;1.50;;
13014;SDS011;6573;57.696;11.950;2023-04-10T14:43:36;3.03;;;1.63;;
13014;SDS011;6573;57.696;11.950;2023-04-10T14:46:05;1.77;;;1.50;;
13014;SDS011;6573;57.696;11.950;2023-04-10T14:48:33;10.40;;;2.10;;
13014;SDS011;6573;57.696;11.950;2023-04-10T14:51:02;8.67;;;2.20;;
13014;SDS011;6573;57.696;11.950;2023-04-10T14:53:31;5.90;;;2.00;;
13014;SDS011;6573;57.696;11.950;2023-04-10T14:56:00;5.30;;;1.80;;
13014;SDS011;6573;57.696;11.950;2023-04-10T14:58:40;5.23;;;2.30;;
13014;SDS011;6573;57.696;11.950;2023-04-10T15:01:09;4.40;;;2.23;;
13014;SDS011;6573;57.696;11.950;2023-04-10T15:03:38;4.77;;;1.60;;
13014;SDS011;6573;57.696;11.950;2023-04-10T15:06:07;2.20;;;1.70;;
13014;SDS011;6573;57.696;11.950;2023-04-10T15:08:35;4.20;;;1.73;;
13014;SDS011;6573;57.696;11.950;2023-04-10T15:11:05;3.40;;;2.00;;
13014;SDS011;6573;57.696;11.950;2023-04-10T15:13:34;5.83;;;1.90;;